Time;durP1;ratioP1;P1;durP2;ratioP2;P2;SDS_P1;SDS_P2;PMS_P1;PMS_P2;Temp;Humidity;BMP_temperature;BMP_pressure;BME280_temperature;BME280_humidity;BME280_pressure;Samples;Min_cycle;Max_cycle;Signal;HPM_P1;HPM_P2
2023/09/01 00:00:13;;;;;;;7.63;4.30;;;;;;;13.93;100.00;101180.72;5090049;28;20032;-36
2023/09/01 00:02:39;;;;;;;8.93;4.40;;;;;;;13.93;100.00;101169.84;5089770;28;20464;-36
2023/09/01 00:05:05;;;;;;;;;;;;;;;14.05;100.00;101165.16;5090469;28;20031;-36
2023/09/01 00:07:31;;;;;;;7.45;4.20;;;;;;;13.97;100.00;101154.69;5089667;28;19909;-36
2023/09/01 00:09:56;;;;;;;;;;;;;;;14.10;100.00;101146.22;5082207;28;20341;-36
2023/09/01 00:12:22;;;;;;;6.38;3.53;;;;;;;14.00;100.00;101148.75;5076471;28;19908;-36
2023/09/01 00:14:47;;;;;;;;;;;;;;;14.10;100.00;101153.53;5076207;28;20027;-36
2023/09/01 00:17:14;;;;;;;7.93;3.67;;;;;;;13.90;100.00;101148.59;5076058;28;19934;-36
2023/09/01 00:19:39;;;;;;;6.82;3.92;;;;;;;13.87;100.00;101155.34;5075738;28;20354;-36
2023/09/01 00:22:05;;;;;;;5.45;3.10;;;;;;;13.83;100.00;101153.38;5076098;28;20118;-36
2023/09/01 00:24:33;;;;;;;8.27;4.03;;;;;;;13.68;100.00;101134.06;5074612;28;20028;-37
2023/09/01 00:26:59;;;;;;;6.57;3.90;;;;;;;13.83;100.00;101154.19;5076073;28;20107;-36
2023/09/01 00:29:24;;;;;;;;;;;;;;;13.94;100.00;101149.75;5076173;28;20066;-36
2023/09/01 00:31:50;;;;;;;8.43;4.00;;;;;;;13.83;100.00;101154.19;5076194;28;19987;-37
2023/09/01 00:34:15;;;;;;;10.32;4.30;;;;;;;13.77;100.00;101154.34;5075736;28;20354;-37
2023/09/01 00:36:40;;;;;;;;;;;;;;;13.91;100.00;101147.53;5076255;28;20039;-36
2023/09/01 00:39:06;;;;;;;8.57;4.00;;;;;;;13.83;100.00;101137.06;5075864;28;19908;-36
2023/09/01 00:41:32;;;;;;;;;;;;;;;13.92;100.00;101141.03;5076283;28;20266;-37
2023/09/01 00:43:57;;;;;;;6.85;3.90;;;;;;;13.84;100.00;101136.81;5075829;28;19911;-36
2023/09/01 00:46:22;;;;;;;;;;;;;;;13.92;100.00;101135.59;5075933;28;20028;-36
2023/09/01 00:48:48;;;;;;;7.63;3.60;;;;;;;13.87;100.00;101127.34;5075714;28;19904;-36
2023/09/01 00:51:14;;;;;;;7.47;3.88;;;;;;;13.82;100.00;101133.53;5076151;28;20025;-36
2023/09/01 00:53:40;;;;;;;6.72;3.63;;;;;;;13.83;100.00;101126.19;5075280;28;20020;-36
2023/09/01 00:56:05;;;;;;;8.27;3.60;;;;;;;13.77;100.00;101122.56;5075568;28;20024;-36
2023/09/01 00:58:31;;;;;;;7.30;3.80;;;;;;;13.75;100.00;101124.69;5075618;28;20072;-36
2023/09/01 01:00:58;;;;;;;6.50;3.42;;;;;;;13.77;100.00;101133.44;5075196;28;20031;-36
2023/09/01 01:03:24;;;;;;;8.07;3.67;;;;;;;13.67;100.00;101110.69;5075692;28;20059;-36
2023/09/01 01:05:52;;;;;;;11.85;4.38;;;;;;;13.73;100.00;101131.44;5075304;28;20342;-37
2023/09/01 01:08:20;;;;;;;7.80;3.78;;;;;;;13.66;100.00;101131.56;5075879;28;20039;-37
2023/09/01 01:11:00;;;;;;;7.40;3.60;;;;;;;13.74;100.00;101136.63;5075777;28;20043;-37
2023/09/01 01:13:32;;;;;;;7.43;4.00;;;;;;;13.71;100.00;101144.44;5075076;28;20036;-37
2023/09/01 01:15:59;;;;;;;6.80;3.42;;;;;;;13.79;100.00;101142.16;5074993;28;20107;-37
2023/09/01 01:18:26;;;;;;;9.98;3.70;;;;;;;13.75;100.00;101145.59;5074844;28;20016;-37
2023/09/01 01:20:55;;;;;;;5.28;3.75;;;;;;;13.74;100.00;101150.22;5074123;28;20471;-37
2023/09/01 01:23:21;;;;;;;5.65;3.47;;;;;;;13.74;100.00;101146.69;5075143;28;20024;-36
2023/09/01 01:25:48;;;;;;;;;;;;;;;13.86;100.00;101158.31;5075271;28;20035;-36
2023/09/01 01:28:15;;;;;;;6.90;3.53;;;;;;;13.76;100.00;101147.25;5075089;28;19904;-36
2023/09/01 01:30:40;;;;;;;10.35;4.30;;;;;;;13.68;100.00;101137.63;5074817;28;20028;-36
2023/09/01 01:33:24;;;;;;;6.10;3.70;;;;;;;13.67;100.00;101137.88;5074804;28;20036;-36
2023/09/01 01:36:04;;;;;;;7.30;3.80;;;;;;;13.66;100.00;101142.44;5074615;28;20074;-37
2023/09/01 01:38:31;;;;;;;8.13;3.70;;;;;;;13.61;100.00;101139.63;5075297;28;20090;-37
2023/09/01 01:41:09;;;;;;;8.02;3.50;;;;;;;13.67;100.00;101141.41;5074794;28;20035;-36
2023/09/01 01:43:35;;;;;;;9.23;4.00;;;;;;;13.70;100.00;101145.50;5074585;28;20452;-37
2023/09/01 01:46:01;;;;;;;9.98;3.75;;;;;;;13.71;100.00;101145.25;5075037;28;20043;-36
2023/09/01 01:48:26;;;;;;;;;;;;;;;13.80;100.00;101153.84;5075021;28;20029;-36
2023/09/01 01:50:55;;;;;;;7.75;3.70;;;;;;;13.65;100.00;101140.81;5074959;28;20302;-37
2023/09/01 01:53:23;;;;;;;7.05;4.10;;;;;;;13.58;100.00;101135.53;5074880;28;20025;-37
2023/09/01 01:55:52;;;;;;;7.10;3.88;;;;;;;13.58;100.00;101151.84;5074023;28;20103;-37
2023/09/01 01:58:18;;;;;;;10.00;4.57;;;;;;;13.59;100.00;101150.75;5074343;28;20102;-36
2023/09/01 02:00:43;;;;;;;;;;;;;;;13.74;100.00;101147.50;5074537;28;20461;-36
2023/09/01 02:03:08;;;;;;;6.20;3.53;;;;;;;13.64;100.00;101142.69;5074637;28;19943;-37
2023/09/01 02:05:34;;;;;;;8.40;3.90;;;;;;;13.64;100.00;101139.16;5074025;28;20026;-37
2023/09/01 02:07:59;;;;;;;;;;;;;;;13.76;100.00;101142.66;5074539;28;20056;-36
2023/09/01 02:10:24;;;;;;;7.35;3.70;;;;;;;13.73;100.00;101134.16;5074084;28;20056;-36
2023/09/01 02:12:50;;;;;;;9.82;4.90;;;;;;;13.65;100.00;101135.38;5074558;28;20040;-37
2023/09/01 02:15:15;;;;;;;;;;;;;;;13.80;100.00;101140.25;5074116;28;20020;-37
2023/09/01 02:17:40;;;;;;;5.82;3.50;;;;;;;13.75;100.00;101135.56;5073691;28;19908;-36
2023/09/01 02:20:16;;;;;;;8.90;4.22;;;;;;;13.65;100.00;101130.75;5073756;28;20399;-36
2023/09/01 02:22:45;;;;;;;6.63;3.20;;;;;;;13.78;100.00;101136.97;5073761;28;20074;-36
2023/09/01 02:25:12;;;;;;;6.25;3.58;;;;;;;13.74;100.00;101128.47;5074030;28;20017;-36
2023/09/01 02:27:40;;;;;;;7.00;3.67;;;;;;;13.65;100.00;101128.03;5073957;28;20463;-36
2023/09/01 02:30:08;;;;;;;8.63;4.22;;;;;;;13.72;100.00;101132.53;5073511;28;20070;-36
2023/09/01 02:32:33;;;;;;;7.22;4.00;;;;;;;13.73;100.00;101137.69;5073688;28;20035;-36
2023/09/01 02:34:58;;;;;;;9.63;4.70;;;;;;;13.76;100.00;101136.38;5073254;28;20367;-37
2023/09/01 02:37:24;;;;;;;4.82;3.25;;;;;;;13.77;100.00;101138.03;5073839;28;20027;-37
2023/09/01 02:39:49;;;;;;;7.63;4.15;;;;;;;13.77;100.00;101138.88;5073433;28;20491;-37
2023/09/01 02:42:14;;;;;;;;;;;;;;;13.88;100.00;101132.53;5073637;28;20063;-36
2023/09/01 02:44:40;;;;;;;8.67;4.30;;;;;;;13.71;100.00;101117.25;5073360;28;19904;-36
2023/09/01 02:47:05;;;;;;;9.70;4.15;;;;;;;13.81;100.00;101128.31;5073722;28;20258;-37
2023/09/01 02:49:31;;;;;;;6.80;3.55;;;;;;;13.84;100.00;101134.09;5073204;28;20349;-37
2023/09/01 02:51:57;;;;;;;6.57;3.97;;;;;;;13.82;100.00;101113.66;5073650;28;20024;-36
2023/09/01 02:54:22;;;;;;;7.00;4.18;;;;;;;13.86;100.00;101112.94;5073473;28;20349;-36
2023/09/01 02:56:47;;;;;;;8.15;4.18;;;;;;;13.87;100.00;101124.63;5073601;28;20453;-36
2023/09/01 02:59:13;;;;;;;9.33;4.20;;;;;;;13.87;100.00;101127.34;5073840;28;20167;-37
2023/09/01 03:01:38;;;;;;;6.10;4.07;;;;;;;13.82;100.00;101116.38;5074338;28;20278;-37
2023/09/01 03:04:06;;;;;;;;;;;;;;;13.95;100.00;101123.38;5074723;28;20052;-37
2023/09/01 03:06:33;;;;;;;7.30;4.05;;;;;;;13.86;100.00;101133.84;5073449;28;19908;-36
2023/09/01 03:08:59;;;;;;;7.10;3.95;;;;;;;13.88;100.00;101123.56;5073257;28;20530;-37
2023/09/01 03:11:24;;;;;;;9.00;3.85;;;;;;;13.92;100.00;101116.56;5074062;28;20048;-37
2023/09/01 03:13:49;;;;;;;6.90;4.30;;;;;;;13.85;100.00;101115.88;5073362;28;20024;-36
2023/09/01 03:16:15;;;;;;;;;;;;;;;13.96;100.00;101114.16;5074362;28;20021;-37
2023/09/01 03:18:40;;;;;;;6.73;3.90;;;;;;;13.94;100.00;101121.75;5073221;28;19954;-37
2023/09/01 03:21:10;;;;;;;;;;;;;;;13.99;100.00;101124.53;5073576;28;20086;-36
2023/09/01 03:23:35;;;;;;;7.35;3.88;;;;;;;13.92;100.00;101124.72;5073365;28;19908;-37
2023/09/01 03:26:00;;;;;;;;;;;;;;;14.01;100.00;101123.25;5073470;28;20474;-37
2023/09/01 03:28:25;;;;;;;8.33;4.03;;;;;;;13.94;100.00;101108.16;5073403;28;19904;-37
2023/09/01 03:30:51;;;;;;;7.43;4.43;;;;;;;13.90;100.00;101096.94;5073426;28;20266;-36
2023/09/01 03:33:17;;;;;;;6.20;4.38;;;;;;;13.92;100.00;101108.41;5073692;28;20258;-36
2023/09/01 03:35:42;;;;;;;;;;;;;;;14.04;100.00;101117.28;5073582;28;20362;-37
2023/09/01 03:38:08;;;;;;;8.88;4.57;;;;;;;13.85;100.00;101113.97;5073071;28;19915;-37
2023/09/01 03:40:35;;;;;;;10.00;4.77;;;;;;;13.90;100.00;101113.25;5073030;28;20536;-37
2023/09/01 03:43:01;;;;;;;8.05;4.30;;;;;;;13.88;100.00;101093.66;5072935;28;20246;-37
2023/09/01 03:45:27;;;;;;;8.13;4.50;;;;;;;13.95;100.00;101107.06;5075352;28;20032;-37
2023/09/01 03:47:53;;;;;;;6.97;4.43;;;;;;;13.94;100.00;101102.72;5077216;28;20053;-37
2023/09/01 03:50:18;;;;;;;8.57;4.50;;;;;;;13.88;100.00;101105.34;5076411;28;20350;-36
2023/09/01 03:52:43;;;;;;;10.02;5.20;;;;;;;13.79;100.00;101095.13;5076339;28;20267;-37
2023/09/01 03:55:09;;;;;;;;;;;;;;;13.96;100.00;101109.56;5077192;28;20029;-37
2023/09/01 03:57:34;;;;;;;8.18;4.13;;;;;;;13.96;100.00;101103.28;5076688;28;19908;-37
2023/09/01 03:59:59;;;;;;;;;;;;;;;14.02;100.00;101099.59;5077101;28;20107;-37
2023/09/01 04:02:25;;;;;;;7.03;4.97;;;;;;;13.95;100.00;101101.63;5076253;28;19908;-37
2023/09/01 04:04:50;;;;;;;7.47;4.50;;;;;;;13.98;100.00;101101.16;5076162;28;20295;-36
2023/09/01 04:07:15;;;;;;;7.93;5.13;;;;;;;13.93;100.00;101099.16;5076395;28;20254;-36
2023/09/01 04:09:41;;;;;;;8.68;4.72;;;;;;;13.97;100.00;101088.63;5076654;28;20025;-36
2023/09/01 04:12:06;;;;;;;10.20;4.72;;;;;;;13.90;100.00;101073.28;5076675;28;20127;-36
2023/09/01 04:14:32;;;;;;;8.10;5.05;;;;;;;13.96;100.00;101081.53;5075940;28;20074;-37
2023/09/01 04:16:57;;;;;;;8.55;5.47;;;;;;;13.97;100.00;101072.31;5076403;28;20036;-36
2023/09/01 04:19:22;;;;;;;;;;;;;;;14.07;100.00;101080.63;5076471;28;20020;-37
2023/09/01 04:21:48;;;;;;;9.35;4.65;;;;;;;13.98;100.00;101080.22;5076911;28;19909;-36
2023/09/01 04:24:13;;;;;;;8.10;5.00;;;;;;;13.93;100.00;101073.88;5075985;28;20024;-37
2023/09/01 04:26:39;;;;;;;;;;;;;;;14.08;100.00;101091.25;5076652;28;20035;-36
2023/09/01 04:29:04;;;;;;;5.67;4.23;;;;;;;13.99;100.00;101075.59;5076160;28;19908;-36
2023/09/01 04:31:30;;;;;;;9.80;5.53;;;;;;;13.95;100.00;101067.09;5075912;28;20262;-36
2023/09/01 04:33:56;;;;;;;;;;;;;;;14.10;100.00;101082.84;5076176;28;20024;-37
2023/09/01 04:36:21;;;;;;;7.38;4.88;;;;;;;13.98;100.00;101076.69;5076017;28;19915;-36
2023/09/01 04:38:47;;;;;;;7.55;4.75;;;;;;;14.04;100.00;101087.38;5075607;28;20024;-36
2023/09/01 04:41:12;;;;;;;9.93;5.28;;;;;;;14.06;100.00;101093.41;5075738;28;20078;-36
2023/09/01 04:43:38;;;;;;;;;;;;;;;14.13;100.00;101087.78;5075770;28;20021;-36
2023/09/01 04:46:04;;;;;;;8.70;4.32;;;;;;;14.08;100.00;101085.00;5075324;28;19904;-36
2023/09/01 04:48:30;;;;;;;8.73;4.78;;;;;;;14.08;100.00;101095.88;5075579;28;20021;-37
2023/09/01 04:50:55;;;;;;;7.68;4.75;;;;;;;14.09;100.00;101086.63;5075574;28;20081;-37
2023/09/01 04:53:21;;;;;;;7.78;5.75;;;;;;;14.05;100.00;101094.47;5076420;28;20032;-37
2023/09/01 04:55:46;;;;;;;10.55;6.35;;;;;;;14.02;100.00;101089.53;5075408;28;20428;-36
2023/09/01 04:58:12;;;;;;;;;;;;;;;14.10;100.00;101094.56;5076052;28;20051;-36
2023/09/01 05:00:37;;;;;;;8.30;5.35;;;;;;;13.98;100.00;101095.72;5075206;28;20010;-37
2023/09/01 05:03:03;;;;;;;;;;;;;;;14.04;100.00;101092.81;5075650;28;20100;-36
2023/09/01 05:05:28;;;;;;;7.57;5.22;;;;;;;13.87;100.00;101076.53;5075269;28;19912;-36
2023/09/01 05:07:53;;;;;;;7.10;5.15;;;;;;;13.97;100.00;101088.63;5074995;28;20031;-36
2023/09/01 05:10:19;;;;;;;11.43;5.22;;;;;;;13.98;100.00;101085.66;5075085;28;20532;-36
2023/09/01 05:12:44;;;;;;;6.40;4.93;;;;;;;14.02;100.00;101092.25;5075144;28;20111;-37
2023/09/01 05:15:10;;;;;;;;;;;;;;;14.09;100.00;101089.34;5075382;28;20411;-37
2023/09/01 05:17:35;;;;;;;7.55;4.85;;;;;;;14.04;100.00;101100.97;5074875;28;20242;-36
2023/09/01 05:20:00;;;;;;;6.47;4.25;;;;;;;14.11;100.00;101096.22;5074897;28;20059;-37
2023/09/01 05:22:26;;;;;;;8.40;4.70;;;;;;;14.10;100.00;101094.56;5075314;28;20359;-37
2023/09/01 05:24:53;;;;;;;9.38;5.47;;;;;;;14.14;100.00;101089.44;5074719;28;20504;-37
2023/09/01 05:27:19;;;;;;;6.70;4.30;;;;;;;14.16;100.00;101092.75;5075141;28;20020;-37
2023/09/01 05:29:45;;;;;;;6.45;4.82;;;;;;;14.18;100.00;101091.41;5074376;28;20463;-37
2023/09/01 05:32:11;;;;;;;8.18;4.70;;;;;;;14.22;100.00;101091.75;5074206;28;20024;-36
2023/09/01 05:34:37;;;;;;;9.77;6.38;;;;;;;14.22;100.00;101096.34;5074723;28;20028;-37
2023/09/01 05:37:02;;;;;;;6.80;5.15;;;;;;;14.16;100.00;101088.13;5074043;28;20028;-36
2023/09/01 05:39:28;;;;;;;7.03;5.25;;;;;;;14.23;100.00;101098.81;5074371;28;20042;-37
2023/09/01 05:41:53;;;;;;;;;;;;;;;14.32;100.00;101102.78;5075857;28;20025;-37
2023/09/01 05:44:20;;;;;;;7.40;4.90;;;;;;;14.23;100.00;101100.72;5074167;28;19928;-37
2023/09/01 05:46:45;;;;;;;6.93;5.00;;;;;;;14.20;100.00;101093.91;5074453;28;20746;-37
2023/09/01 05:49:10;;;;;;;11.70;5.13;;;;;;;14.26;100.00;101095.63;5074130;28;20036;-36
2023/09/01 05:51:36;;;;;;;;;;;;;;;14.36;100.00;101105.81;5074674;28;20035;-37
2023/09/01 05:54:01;;;;;;;8.03;4.83;;;;;;;14.34;100.00;101107.94;5074842;28;19904;-36
2023/09/01 05:56:26;;;;;;;7.07;4.77;;;;;;;14.34;100.00;101099.78;5074241;28;20247;-36
2023/09/01 05:58:52;;;;;;;8.55;4.47;;;;;;;14.37;100.00;101094.69;5074511;28;20283;-36
2023/09/01 06:01:17;;;;;;;7.07;5.07;;;;;;;14.32;100.00;101082.91;5074719;28;20020;-35
2023/09/01 06:03:42;;;;;;;;;;;;;;;14.46;100.00;101092.38;5074467;28;20016;-36
2023/09/01 06:06:09;;;;;;;7.10;4.65;;;;;;;14.39;100.00;101084.34;5074555;28;20340;-35
2023/09/01 06:08:34;;;;;;;7.72;5.40;;;;;;;14.27;100.00;101074.69;5073506;28;20025;-36
2023/09/01 06:11:04;;;;;;;6.78;5.22;;;;;;;14.48;100.00;101100.28;5074163;28;20029;-36
2023/09/01 06:13:29;;;;;;;7.55;5.15;;;;;;;14.50;100.00;101092.72;5074730;28;20021;-36
2023/09/01 06:15:55;;;;;;;10.13;5.63;;;;;;;14.51;100.00;101084.31;5073992;28;20028;-36
2023/09/01 06:18:20;;;;;;;;;;;;;;;14.68;100.00;101095.94;5074508;28;20016;-36
2023/09/01 06:20:45;;;;;;;7.00;4.53;;;;;;;14.60;100.00;101088.25;5074151;28;20337;-36
2023/09/01 06:23:11;;;;;;;7.97;4.70;;;;;;;14.71;100.00;101104.69;5074529;28;20572;-36
2023/09/01 06:25:36;;;;;;;;;;;;;;;14.78;100.00;101106.16;5074579;28;20089;-36
2023/09/01 06:28:01;;;;;;;7.47;5.20;;;;;;;14.51;100.00;101089.75;5074138;28;19970;-36
2023/09/01 06:30:27;;;;;;;8.85;5.22;;;;;;;14.69;100.00;101107.69;5073417;28;20354;-36
2023/09/01 06:32:52;;;;;;;8.77;5.88;;;;;;;14.66;100.00;101105.44;5073728;28;20059;-35
2023/09/01 06:35:17;;;;;;;;;;;;;;;14.74;100.00;101110.47;5074052;28;20081;-36
2023/09/01 06:37:43;;;;;;;9.70;5.00;;;;;;;14.67;100.00;101102.47;5073814;28;20348;-35
2023/09/01 06:40:09;;;;;;;12.00;5.97;;;;;;;14.64;100.00;101093.97;5073851;28;20648;-36
2023/09/01 06:42:34;;;;;;;10.05;5.20;;;;;;;14.68;100.00;101101.38;5074079;28;20475;-36
2023/09/01 06:44:59;;;;;;;;;;;;;;;14.77;100.00;101106.41;5074460;28;20101;-36
2023/09/01 06:47:25;;;;;;;8.93;5.72;;;;;;;14.66;100.00;101108.19;5073867;28;19908;-36
2023/09/01 06:49:50;;;;;;;;;;;;;;;14.78;100.00;101117.03;5074169;28;20024;-36
2023/09/01 06:52:16;;;;;;;6.70;5.60;;;;;;;14.66;100.00;101106.28;5073152;28;19904;-35
2023/09/01 06:54:41;;;;;;;7.88;6.15;;;;;;;14.72;100.00;101128.13;5073129;28;20279;-36
2023/09/01 06:57:07;;;;;;;6.05;5.45;;;;;;;14.67;100.00;101107.09;5073809;28;20033;-36
2023/09/01 06:59:32;;;;;;;;;;;;;;;14.82;100.00;101123.63;5074342;28;20044;-36
2023/09/01 07:01:57;;;;;;;7.75;5.20;;;;;;;14.75;100.00;101106.66;5073916;28;20295;-36
2023/09/01 07:04:24;;;;;;;;;;;;;;;14.85;100.00;101111.44;5073862;28;20021;-36
2023/09/01 07:06:49;;;;;;;7.93;5.80;;;;;;;14.82;100.00;101106.47;5073450;28;19950;-36
2023/09/01 07:09:15;;;;;;;8.45;5.70;;;;;;;14.83;100.00;101098.03;5073683;28;20373;-36
2023/09/01 07:11:40;;;;;;;10.65;6.50;;;;;;;14.84;100.00;101090.72;5073697;28;20368;-36
2023/09/01 07:14:06;;;;;;;;;;;;;;;14.92;100.00;101099.25;5072878;28;20490;-36
2023/09/01 07:16:31;;;;;;;9.20;5.97;;;;;;;14.91;100.00;101097.59;5073593;28;19912;-36
2023/09/01 07:18:56;;;;;;;;;;;;;;;14.98;100.00;101100.13;5073470;28;20020;-36
2023/09/01 07:21:22;;;;;;;8.00;5.75;;;;;;;14.90;100.00;101092.44;5077228;28;20349;-36
2023/09/01 07:23:48;;;;;;;;;;;;;;;15.02;100.00;101100.44;5077678;28;20032;-36
2023/09/01 07:26:14;;;;;;;7.90;6.28;;;;;;;14.97;100.00;101095.75;5077004;28;19919;-36
2023/09/01 07:28:39;;;;;;;10.65;7.25;;;;;;;14.97;100.00;101101.22;5078092;28;20028;-36
2023/09/01 07:31:10;;;;;;;8.38;7.13;;;;;;;14.95;100.00;101081.59;5077167;28;20030;-36
2023/09/01 07:33:37;;;;;;;10.68;7.03;;;;;;;14.95;100.00;101076.16;5076977;28;20058;-36
2023/09/01 07:36:02;;;;;;;8.07;7.03;;;;;;;14.95;100.00;101089.75;5077197;28;20021;-36
2023/09/01 07:38:28;;;;;;;10.10;8.00;;;;;;;14.96;100.00;101083.25;5077174;28;20027;-36
2023/09/01 07:40:53;;;;;;;;;;;;;;;15.02;100.00;101084.94;5077181;28;20342;-36
2023/09/01 07:43:18;;;;;;;8.33;7.00;;;;;;;14.92;100.00;101080.19;5076573;28;19970;-36
2023/09/01 07:45:44;;;;;;;8.55;7.47;;;;;;;14.97;100.00;101079.44;5076781;28;20305;-36
2023/09/01 07:48:10;;;;;;;;;;;;;;;15.01;100.00;101083.28;5077250;28;20027;-36
2023/09/01 07:50:36;;;;;;;9.57;7.50;;;;;;;14.91;100.00;101078.53;5076616;28;20344;-36
2023/09/01 07:53:02;;;;;;;9.05;7.68;;;;;;;14.99;100.00;101090.91;5076758;28;20032;-36
2023/09/01 07:55:27;;;;;;;8.48;6.93;;;;;;;14.96;100.00;101085.13;5076568;28;20046;-36
2023/09/01 07:57:53;;;;;;;9.27;7.22;;;;;;;15.11;100.00;101094.31;5076605;28;20040;-35
2023/09/01 08:00:18;;;;;;;;;;;;;;;15.19;100.00;101095.75;5076534;28;20020;-36
2023/09/01 08:02:43;;;;;;;7.75;6.60;;;;;;;15.23;100.00;101090.63;5076734;28;19961;-36
2023/09/01 08:05:09;;;;;;;10.38;6.88;;;;;;;15.24;100.00;101100.44;5076102;28;20103;-36
2023/09/01 08:07:35;;;;;;;;;;;;;;;15.32;100.00;101103.50;5077073;28;20033;-36
2023/09/01 08:10:00;;;;;;;9.68;6.72;;;;;;;15.24;100.00;101104.00;5075752;28;20007;-36
2023/09/01 08:12:27;;;;;;;;;;;;;;;15.33;100.00;101110.63;5076535;28;20391;-36
2023/09/01 08:14:53;;;;;;;8.05;6.82;;;;;;;15.21;100.00;101107.22;5076373;28;19915;-36
2023/09/01 08:17:18;;;;;;;7.90;6.82;;;;;;;15.28;100.00;101118.75;5076267;28;20025;-36
2023/09/01 08:19:50;;;;;;;;;;;;;;;15.35;100.00;101111.19;5076407;28;20027;-36
2023/09/01 08:22:17;;;;;;;10.57;6.75;;;;;;;15.24;100.00;101112.16;5076232;28;19908;-36
2023/09/01 08:24:43;;;;;;;8.23;7.00;;;;;;;15.28;100.00;101129.66;5076941;28;20029;-36
2023/09/01 08:27:08;;;;;;;8.25;7.10;;;;;;;15.33;100.00;101128.88;5076460;28;20021;-36
2023/09/01 08:29:34;;;;;;;9.10;7.03;;;;;;;15.37;100.00;101130.00;5076609;28;20054;-36
2023/09/01 08:32:00;;;;;;;8.80;7.05;;;;;;;15.39;100.00;101128.69;5076197;28;20448;-36
2023/09/01 08:34:29;;;;;;;8.00;7.20;;;;;;;15.35;100.00;101115.81;5075990;28;20060;-36
2023/09/01 08:36:54;;;;;;;10.27;7.60;;;;;;;15.28;100.00;101118.75;5076807;28;20040;-36
2023/09/01 08:39:20;;;;;;;7.95;7.15;;;;;;;15.33;100.00;101124.25;5075492;28;20029;-36
2023/09/01 08:41:45;;;;;;;;;;;;;;;15.46;100.00;101129.28;5076932;28;20032;-36
2023/09/01 08:44:11;;;;;;;7.80;6.80;;;;;;;15.42;100.00;101135.50;5075521;28;19995;-36
2023/09/01 08:46:37;;;;;;;7.45;6.65;;;;;;;15.30;100.00;101121.22;5076322;28;20066;-36
2023/09/01 08:49:04;;;;;;;;;;;;;;;15.45;100.00;101140.44;5076425;28;20052;-36
2023/09/01 08:51:30;;;;;;;7.95;6.32;;;;;;;15.42;100.00;101146.41;5076224;28;19912;-36
2023/09/01 08:53:56;;;;;;;9.25;7.13;;;;;;;15.31;100.00;101134.56;5075308;28;20487;-36
2023/09/01 08:56:22;;;;;;;7.63;6.88;;;;;;;15.36;100.00;101142.78;5075856;28;20032;-36
2023/09/01 08:58:47;;;;;;;;;;;;;;;15.45;100.00;101148.63;5075878;28;20047;-36
2023/09/01 09:01:14;;;;;;;8.40;7.60;;;;;;;15.31;100.00;101147.38;5075457;28;19912;-36
2023/09/01 09:03:39;;;;;;;7.53;6.72;;;;;;;15.31;100.00;101142.75;5075379;28;20025;-36
2023/09/01 09:06:05;;;;;;;7.15;6.45;;;;;;;15.33;100.00;101146.06;5076232;28;20029;-36
2023/09/01 09:08:32;;;;;;;8.05;6.47;;;;;;;15.34;100.00;101144.97;5075623;28;20020;-36
2023/09/01 09:10:57;;;;;;;7.30;6.70;;;;;;;15.35;100.00;101143.06;5074958;28;20113;-36
2023/09/01 09:13:26;;;;;;;7.85;7.10;;;;;;;15.33;100.00;101145.22;5075958;28;20044;-36
2023/09/01 09:16:12;;;;;;;7.95;7.15;;;;;;;15.37;100.00;101146.34;5075243;28;20020;-36
2023/09/01 09:18:40;;;;;;;8.05;7.25;;;;;;;15.38;100.00;101156.19;5074952;28;20131;-35
2023/09/01 09:21:27;;;;;;;8.00;7.20;;;;;;;15.37;100.00;101154.53;5074592;28;20028;-36
2023/09/01 09:23:57;;;;;;;8.70;7.78;;;;;;;15.32;100.00;101165.34;5075495;28;20036;-36
2023/09/01 09:26:30;;;;;;;8.38;7.03;;;;;;;15.19;100.00;101136.63;5074760;28;20020;-36
2023/09/01 09:29:12;;;;;;;8.85;7.95;;;;;;;15.31;100.00;101158.28;5075195;28;20028;-36
2023/09/01 09:31:41;;;;;;;10.98;7.78;;;;;;;15.31;100.00;101164.53;5075014;28;20360;-36
2023/09/01 09:34:13;;;;;;;9.27;7.63;;;;;;;15.36;100.00;101166.50;5074940;28;20368;-37
2023/09/01 09:36:38;;;;;;;9.05;8.15;;;;;;;15.33;100.00;101158.84;5074543;28;20047;-36
2023/09/01 09:39:06;;;;;;;10.20;8.32;;;;;;;15.32;100.00;101160.72;5075285;28;20433;-36
2023/09/01 09:41:47;;;;;;;8.45;7.53;;;;;;;15.43;100.00;101169.88;5073974;28;20484;-36
2023/09/01 09:44:22;;;;;;;8.90;8.00;;;;;;;15.40;100.00;101162.19;5074188;28;20070;-36
2023/09/01 09:46:49;;;;;;;8.50;7.55;;;;;;;15.50;100.00;101166.94;5074976;28;20048;-35
2023/09/01 09:49:15;;;;;;;8.70;7.90;;;;;;;15.48;100.00;101163.66;5074326;28;20033;-36
2023/09/01 09:51:41;;;;;;;;;;;;;;;15.61;100.00;101174.13;5075777;28;20028;-36
2023/09/01 09:54:10;;;;;;;7.97;7.28;;;;;;;15.54;100.00;101166.16;5074072;28;19912;-36
2023/09/01 09:56:38;;;;;;;10.75;8.80;;;;;;;15.60;100.00;101176.03;5075258;28;20032;-36
2023/09/01 09:59:05;;;;;;;8.05;7.25;;;;;;;15.60;100.00;101172.50;5074118;28;20037;-36
2023/09/01 10:01:34;;;;;;;8.15;7.13;;;;;;;15.67;100.00;101173.16;5074100;28;20035;-36
2023/09/01 10:04:04;;;;;;;8.80;7.97;;;;;;;15.69;100.00;101171.81;5074414;28;20021;-36
2023/09/01 10:06:31;;;;;;;9.27;7.80;;;;;;;15.70;100.00;101173.44;5074069;28;20099;-36
2023/09/01 10:08:59;;;;;;;7.72;7.03;;;;;;;15.74;100.00;101171.03;5074926;28;20408;-36
2023/09/01 10:11:28;;;;;;;7.75;6.90;;;;;;;15.79;100.00;101170.28;5074705;28;20020;-36
2023/09/01 10:13:55;;;;;;;7.78;6.97;;;;;;;15.80;100.00;101171.91;5073636;28;20099;-36
2023/09/01 10:16:22;;;;;;;7.80;7.20;;;;;;;15.81;100.00;101158.03;5073808;28;20024;-36
2023/09/01 10:18:48;;;;;;;7.72;7.03;;;;;;;15.85;100.00;101159.13;5073941;28;20453;-38
2023/09/01 10:21:18;;;;;;;7.38;6.68;;;;;;;15.89;100.00;101154.81;5073724;28;20059;-38
2023/09/01 10:23:44;;;;;;;7.03;6.32;;;;;;;15.95;100.00;101158.41;5074528;28;20141;-38
2023/09/01 10:26:17;;;;;;;6.97;6.38;;;;;;;15.87;100.00;101139.81;5073940;28;20020;-38
2023/09/01 10:29:13;;;;;;;6.20;5.60;;;;;;;16.02;100.00;101156.31;5074719;28;20068;-38
2023/09/01 10:31:39;;;;;;;6.63;5.50;;;;;;;16.00;100.00;101160.38;5069351;28;20094;-35
2023/09/01 10:34:05;;;;;;;;;;;;;;;16.11;100.00;101159.41;5074425;28;20028;-35
2023/09/01 10:36:31;;;;;;;6.38;5.78;;;;;;;16.13;100.00;101158.03;5073854;28;19927;-35
2023/09/01 10:39:03;;;;;;;;;;;;;;;16.19;100.00;101167.91;5073924;28;20452;-35
2023/09/01 10:41:58;;;;;;;6.15;5.65;;;;;;;16.17;100.00;101169.25;5073988;28;20233;-36
2023/09/01 10:44:44;;;;;;;5.20;4.80;;;;;;;16.10;100.00;101166.72;5073658;28;20025;-38
2023/09/01 10:47:31;;;;;;;5.88;5.30;;;;;;;16.19;100.00;101176.09;5069588;28;20036;-38
2023/09/01 10:49:58;;;;;;;5.93;5.40;;;;;;;16.20;100.00;101183.22;5073306;28;20024;-38
2023/09/01 10:52:24;;;;;;;6.53;5.95;;;;;;;16.23;100.00;101176.41;5073910;28;20095;-38
2023/09/01 10:55:05;;;;;;;;;;;;;;;16.33;100.00;101181.09;5073583;28;20108;-38
2023/09/01 10:57:43;;;;;;;5.63;5.15;;;;;;;16.41;100.00;101178.72;5073567;28;19919;-36
2023/09/01 11:00:34;;;;;;;5.00;4.60;;;;;;;16.46;100.00;101188.88;5073579;28;20044;-35
2023/09/01 11:03:30;;;;;;;4.60;4.30;;;;;;;16.46;100.00;101184.22;5073794;28;20064;-38
2023/09/01 11:06:00;;;;;;;4.47;4.05;;;;;;;16.53;100.00;101183.97;5073942;28;20033;-38
2023/09/01 11:08:26;;;;;;;4.53;4.13;;;;;;;16.60;100.00;101181.06;5073719;28;20411;-38
2023/09/01 11:10:52;;;;;;;;;;;;;;;16.67;100.00;101176.97;5074662;28;20051;-38
2023/09/01 11:13:19;;;;;;;4.22;3.92;;;;;;;16.59;100.00;101180.22;5073991;28;19913;-38
2023/09/01 11:15:46;;;;;;;4.15;3.85;;;;;;;16.60;100.00;101181.88;5073377;28;20440;-38
2023/09/01 11:18:19;;;;;;;4.82;4.43;;;;;;;16.61;100.00;101172.59;5073956;28;20109;-38
2023/09/01 11:20:54;;;;;;;4.45;4.05;;;;;;;16.63;100.00;101175.84;5073003;28;20019;-38
2023/09/01 11:23:23;;;;;;;5.05;4.68;;;;;;;16.58;100.00;101181.28;5073922;28;20068;-37
2023/09/01 11:25:58;;;;;;;5.18;4.78;;;;;;;16.49;100.00;101171.94;5073253;28;20052;-38
2023/09/01 11:28:26;;;;;;;5.18;4.68;;;;;;;16.61;100.00;101167.13;5073553;28;20420;-38